createdAt,value
2019-02-04T00:00:52.716Z,2.07
2019-02-04T00:05:57.790Z,2.00
2019-02-04T00:11:06.388Z,2.02
2019-02-04T00:16:13.595Z,2.00
2019-02-04T00:21:21.203Z,2.05
2019-02-04T00:26:27.884Z,2.06
2019-02-04T00:31:38.059Z,2.00
2019-02-04T00:36:43.656Z,1.97
2019-02-04T00:41:48.896Z,2.03
2019-02-04T00:46:55.569Z,2.00
2019-02-04T00:52:01.783Z,1.95
2019-02-04T00:57:06.992Z,1.94
2019-02-04T01:02:12.494Z,1.98
2019-02-04T01:07:17.539Z,1.94
2019-02-04T01:12:22.809Z,1.90
2019-02-04T01:17:29.100Z,1.74
2019-02-04T01:22:34.225Z,1.60
2019-02-04T01:27:39.328Z,1.53
2019-02-04T01:32:44.912Z,1.53
2019-02-04T01:37:50.067Z,1.52
2019-02-04T01:42:55.788Z,1.62
2019-02-04T01:48:00.974Z,1.63
2019-02-04T01:53:06.197Z,1.70
2019-02-04T01:58:11.856Z,1.71
2019-02-04T02:03:17.510Z,1.69
2019-02-04T02:08:22.754Z,1.65
2019-02-04T02:13:27.828Z,1.66
2019-02-04T02:18:32.912Z,1.77
2019-02-04T02:23:38.204Z,1.68
2019-02-04T02:28:43.420Z,1.61
2019-02-04T02:33:48.574Z,1.53
2019-02-04T02:38:53.758Z,1.48
2019-02-04T02:43:59.403Z,1.38
2019-02-04T02:49:05.065Z,1.29
2019-02-04T02:54:10.188Z,1.27
2019-02-04T02:59:15.441Z,1.26
2019-02-04T03:04:20.860Z,1.18
2019-02-04T03:09:26.718Z,1.15
2019-02-04T03:14:58.144Z,1.12
2019-02-04T03:20:03.392Z,1.16
2019-02-04T03:25:10.272Z,1.22
2019-02-04T03:30:19.523Z,1.27
2019-02-04T03:35:24.964Z,1.30
2019-02-04T03:40:32.104Z,1.35
2019-02-04T03:45:37.246Z,1.30
2019-02-04T03:50:42.708Z,1.40
2019-02-04T03:55:47.820Z,1.42
2019-02-04T04:00:53.174Z,1.42
2019-02-04T04:05:58.255Z,1.43
2019-02-04T04:11:03.427Z,1.50
2019-02-04T04:16:08.821Z,1.38
2019-02-04T04:21:14.585Z,1.42
2019-02-04T04:26:20.004Z,1.41
2019-02-04T04:31:25.204Z,1.42
2019-02-04T04:36:30.335Z,1.45
2019-02-04T04:41:35.462Z,1.31
2019-02-04T04:46:40.594Z,1.25
2019-02-04T04:51:45.646Z,1.17
2019-02-04T04:56:51.723Z,1.12
2019-02-04T05:01:56.844Z,1.12
2019-02-04T05:07:01.886Z,1.07
2019-02-04T05:12:12.026Z,1.09
2019-02-04T05:17:17.536Z,1.06
2019-02-04T05:22:22.808Z,1.04
2019-02-04T05:27:28.094Z,0.98
2019-02-04T05:32:33.468Z,0.94
2019-02-04T05:37:38.775Z,0.87
2019-02-04T05:42:44.144Z,0.76
2019-02-04T05:47:49.318Z,0.69
2019-02-04T05:52:54.880Z,0.66
2019-02-04T05:58:00.473Z,0.66
2019-02-04T06:03:07.596Z,0.64
2019-02-04T06:08:12.698Z,0.61
2019-02-04T06:13:18.106Z,0.58
2019-02-04T06:18:24.449Z,0.55
2019-02-04T06:23:29.655Z,0.54
2019-02-04T06:28:34.712Z,0.50
2019-02-04T06:33:39.746Z,0.51
2019-02-04T06:38:45.133Z,0.44
2019-02-04T06:43:50.608Z,0.38
2019-02-04T06:48:56.694Z,0.39
2019-02-04T06:54:02.913Z,0.32
2019-02-04T06:59:08.125Z,0.32
2019-02-04T07:04:13.504Z,0.33
2019-02-04T07:09:18.773Z,0.35
2019-02-04T07:14:23.969Z,0.26
2019-02-04T07:19:29.124Z,0.24
2019-02-04T07:24:42.857Z,0.27
2019-02-04T07:29:42.435Z,0.30
2019-02-04T07:34:47.618Z,0.32
2019-02-04T07:39:53.561Z,0.40
2019-02-04T07:44:58.936Z,0.44
2019-02-04T07:50:04.411Z,0.47
2019-02-04T07:55:09.913Z,0.48
2019-02-04T08:00:18.052Z,0.55
2019-02-04T08:05:23.223Z,0.59
2019-02-04T08:10:28.513Z,0.63
2019-02-04T08:15:36.279Z,0.67
2019-02-04T08:20:41.626Z,1.11
2019-02-04T08:25:47.000Z,1.44
2019-02-04T08:30:52.591Z,1.39
2019-02-04T08:35:57.747Z,1.27
2019-02-04T08:41:03.432Z,1.29
2019-02-04T08:46:08.653Z,1.30
2019-02-04T08:51:14.382Z,1.35
2019-02-04T08:56:19.921Z,1.39
2019-02-04T09:01:25.897Z,1.41
2019-02-04T09:06:31.363Z,1.48
2019-02-04T09:11:36.642Z,1.52
2019-02-04T09:16:42.917Z,1.72
2019-02-04T09:21:48.218Z,1.90
2019-02-04T09:26:53.490Z,2.13
2019-02-04T09:31:59.555Z,2.26
2019-02-04T09:37:05.279Z,2.23
2019-02-04T09:42:10.677Z,2.26
2019-02-04T09:47:16.591Z,2.29
2019-02-04T09:52:22.717Z,2.30
2019-02-04T09:57:28.121Z,2.34
2019-02-04T10:02:33.479Z,2.50
2019-02-04T10:07:38.709Z,2.65
2019-02-04T10:12:44.298Z,2.72
2019-02-04T10:17:49.423Z,2.81
2019-02-04T10:23:01.061Z,2.99
2019-02-04T10:28:08.521Z,3.05
2019-02-04T10:33:13.874Z,3.11
2019-02-04T10:38:19.252Z,3.25
2019-02-04T10:43:24.517Z,3.51
2019-02-04T10:48:30.069Z,4.53
2019-02-04T10:53:35.251Z,5.68
2019-02-04T10:58:41.141Z,6.53
2019-02-04T11:03:46.382Z,6.98
2019-02-04T11:08:52.163Z,8.29
2019-02-04T11:13:57.760Z,10.70
2019-02-04T11:19:02.960Z,11.02
2019-02-04T11:24:08.384Z,11.12
2019-02-04T11:29:13.915Z,14.01
2019-02-04T11:34:19.822Z,13.15
2019-02-04T11:39:25.347Z,12.58
2019-02-04T11:44:30.750Z,13.48
2019-02-04T11:49:36.544Z,14.23
2019-02-04T11:54:42.106Z,14.52
2019-02-04T11:59:48.145Z,14.55
2019-02-04T12:04:53.386Z,13.34
2019-02-04T12:09:58.868Z,12.97
2019-02-04T12:15:04.425Z,13.50
2019-02-04T12:20:11.415Z,13.66
2019-02-04T12:25:19.155Z,14.09
2019-02-04T12:30:31.080Z,13.87
2019-02-04T12:35:36.632Z,12.67
2019-02-04T12:40:42.883Z,11.38
2019-02-04T12:45:49.090Z,11.37
2019-02-04T12:50:55.021Z,12.26
2019-02-04T12:56:01.251Z,12.79
2019-02-04T13:01:08.148Z,13.30
2019-02-04T13:06:14.603Z,11.74
2019-02-04T13:11:20.160Z,11.14
2019-02-04T13:16:31.833Z,11.96
2019-02-04T13:21:45.061Z,12.85
2019-02-04T13:26:47.028Z,12.47
2019-02-04T13:31:55.449Z,12.09
2019-02-04T13:37:01.061Z,12.13
2019-02-04T13:42:08.051Z,12.18
2019-02-04T13:47:13.323Z,11.62
2019-02-04T13:52:19.595Z,11.05
2019-02-04T13:57:24.859Z,10.49
2019-02-04T14:02:30.095Z,9.97
2019-02-04T14:07:36.381Z,9.43
2019-02-04T14:12:45.498Z,8.53
2019-02-04T14:17:50.168Z,7.76
2019-02-04T14:22:56.243Z,7.46
2019-02-04T14:28:03.902Z,7.06
2019-02-04T14:33:09.002Z,6.75
2019-02-04T14:38:15.499Z,6.56
2019-02-04T14:43:29.194Z,6.35
2019-02-04T14:49:28.065Z,6.15
2019-02-04T14:55:14.759Z,6.01
2019-02-04T15:00:50.479Z,5.86
2019-02-04T15:06:16.275Z,5.68
2019-02-04T15:11:47.873Z,5.50
2019-02-04T15:17:19.169Z,5.36
2019-02-04T15:22:44.502Z,5.14
2019-02-04T15:28:20.853Z,4.99
2019-02-04T15:34:07.528Z,4.83
2019-02-04T15:40:15.183Z,4.67
2019-02-04T15:45:42.221Z,4.62
2019-02-04T15:51:11.953Z,4.57
2019-02-04T15:56:17.754Z,4.41
2019-02-04T16:01:23.298Z,4.27
2019-02-04T16:06:28.858Z,4.17
2019-02-04T16:11:34.305Z,4.02
2019-02-04T16:16:40.509Z,3.92
2019-02-04T16:21:47.384Z,3.88
2019-02-04T16:26:53.773Z,3.77
2019-02-04T16:31:59.218Z,3.72
2019-02-04T16:37:04.696Z,3.66
2019-02-04T16:42:11.601Z,3.55
2019-02-04T16:47:17.329Z,3.54
2019-02-04T16:52:22.565Z,3.49
2019-02-04T16:57:28.469Z,3.40
2019-02-04T17:02:35.441Z,3.34
2019-02-04T17:07:41.461Z,3.27
2019-02-04T17:12:46.995Z,3.27
2019-02-04T17:17:52.454Z,3.22
2019-02-04T17:22:58.509Z,3.14
2019-02-04T17:28:04.121Z,3.09
2019-02-04T17:33:09.600Z,3.10
2019-02-04T17:38:15.015Z,3.00
2019-02-04T17:43:21.147Z,2.96
2019-02-04T17:48:26.533Z,2.91
2019-02-04T17:53:34.374Z,2.94
2019-02-04T17:58:39.861Z,2.96
2019-02-04T18:03:45.092Z,2.94
2019-02-04T18:08:50.550Z,2.81
2019-02-04T18:19:15.127Z,2.79
2019-02-04T18:24:20.691Z,2.72
2019-02-04T18:29:25.852Z,2.74
2019-02-04T18:34:31.223Z,2.76
2019-02-04T18:39:37.889Z,2.74
2019-02-04T18:44:43.791Z,2.76
2019-02-04T18:49:49.261Z,2.76
2019-02-04T18:54:54.822Z,2.76
2019-02-04T19:00:00.517Z,2.72
2019-02-04T19:05:07.979Z,2.65
2019-02-04T19:10:16.007Z,2.62
2019-02-04T19:15:22.368Z,2.59
2019-02-04T19:20:27.747Z,2.56
2019-02-04T19:25:33.107Z,2.49
2019-02-04T19:30:44.923Z,2.48
2019-02-04T19:35:50.052Z,2.41
2019-02-04T19:40:56.254Z,2.34
2019-02-04T19:46:02.216Z,2.32
2019-02-04T19:51:07.394Z,2.41
2019-02-04T19:56:13.047Z,2.40
2019-02-04T20:01:19.481Z,2.35
2019-02-04T20:06:25.600Z,2.33
2019-02-04T20:11:31.297Z,2.28
2019-02-04T20:16:39.420Z,2.24
2019-02-04T20:21:56.382Z,2.18
2019-02-04T20:27:01.890Z,2.17
2019-02-04T20:32:12.157Z,2.04
2019-02-04T20:37:24.626Z,1.96
2019-02-04T20:42:29.898Z,1.93
2019-02-04T20:47:35.009Z,1.84
2019-02-04T20:52:40.239Z,1.87
2019-02-04T20:57:47.001Z,1.83
2019-02-04T21:02:52.571Z,1.82
2019-02-04T21:07:58.070Z,1.90
2019-02-04T21:13:03.527Z,1.89
2019-02-04T21:18:09.442Z,1.95
2019-02-04T21:23:14.763Z,1.94
2019-02-04T21:28:19.966Z,1.95
2019-02-04T21:33:31.024Z,1.89
2019-02-04T21:38:46.522Z,1.89
2019-02-04T21:43:55.961Z,1.89
2019-02-04T21:49:01.297Z,1.86
2019-02-04T21:54:06.776Z,1.91
2019-02-04T21:59:12.529Z,1.95
2019-02-04T22:04:22.280Z,1.95
2019-02-04T22:09:29.074Z,1.92
2019-02-04T22:14:34.522Z,1.88
2019-02-04T22:19:40.405Z,1.85
2019-02-04T22:24:45.567Z,1.88
2019-02-04T22:29:50.715Z,1.91
2019-02-04T22:34:56.247Z,1.88
2019-02-04T22:40:02.564Z,1.81
2019-02-04T22:45:10.241Z,1.82
2019-02-04T22:50:18.447Z,1.90
2019-02-04T22:55:31.632Z,1.93
2019-02-04T23:01:09.313Z,1.88
2019-02-04T23:06:15.140Z,1.80
2019-02-04T23:11:20.637Z,1.82
2019-02-04T23:16:26.140Z,1.75
2019-02-04T23:21:32.733Z,1.72
2019-02-04T23:26:38.370Z,1.73
2019-02-04T23:31:43.844Z,1.65
2019-02-04T23:36:49.577Z,1.68
2019-02-04T23:41:58.261Z,1.63
2019-02-04T23:47:01.951Z,1.60
2019-02-04T23:52:07.420Z,1.58
2019-02-04T23:57:13.894Z,1.61
